Weather at Glasgow International Airport

Public forecast

Using degrees Celsius for public forecast. Weather courtesy of forecast.io.

Current aviation weather report (METAR) for Glasgow International Airport

Retrieved 2021/10/15 22:20 UTC (5 minutes ago):

EGPF 152220Z AUTO 21003KT 9999 OVC044 06/04 Q1021

Aviation forecast (TAF) for Glasgow International Airport

Retrieved 2021/10/15 18:00 UTC (4 hours ago):

TAF EGPF 151657Z 1518/1618 VRB03KT 9999 FEW035 PROB30 TEMPO 1605/1610 4000 BR TEMPO 1610/1618 8000 -RADZ BKN014 PROB40 TEMPO 1614/1618 3000 RADZ BKN008